Gytsjerk, Netherlands
Current Conditions -  °F | °C
As of 11:25 AM on Monday 26 Jan 2015 (Local Time) from EHLW Reporting Station
Drizzle Drizzle  
Wind Chill: 39°   Ceiling: 300
Heat Index: 45°   Visibility: 1.6mi
Dew Point: 45°   Wind: 12mph
Humidity: 100%   Direction: 250°WSW
Pressure: 29.97"   Gusts: NA
Location:  53.24°N, 5.9°E
Report Text: EHLW 261025Z AUTO 25010KT 2600 R23/2900 -DZ OVC003 07/07 Q1015 REDZ YLO
Loading
Personal Weather Stations






























Interactive Weather Map New forecast layout! Learn more

10-Day Weather Forecast

Advertisements
Track Severe Weather on mobile